Airport View

Enter AWOS ICAO identifier for current METAR.

ex. KFNL

KANB 251153Z AUTO 22005KT 10SM OVC007 20/19 A2994 RMK AO2 SLP132 7//// T02000189 10211 20200 53017

25 Sep 2020 12:57

Frequency: 119.675

Phone: 256-835-3931

Other Area AWOS: KASN - KPLR - KGAD - KSCD

TAF KANB 251121Z 2512/2612 VRB03KT P6SM VCSH OVC011 TEMPO 2512/2514 OVC009 FM252100 25006KT P6SM BKN025 FM260800 00000KT 4SM BR BKN014 FM261000 00000KT 3SM BR BKN007